Time;durP1;ratioP1;P1;durP2;ratioP2;P2;SDS_P1;SDS_P2;PMS_P1;PMS_P2;Temp;Humidity;BMP_temperature;BMP_pressure;BME280_temperature;BME280_humidity;BME280_pressure;Samples;Min_cycle;Max_cycle;Signal;HPM_P1;HPM_P2
2024/04/14 02:00:02;;;;;;;3.57;1.20;;;14.10;99.90;;;;;;6575706;21;20251;-82
2024/04/14 02:05:25;;;;;;;3.73;1.47;;;13.90;99.90;;;;;;6517066;22;20652;-82
2024/04/14 02:08:00;;;;;;;5.37;1.30;;;13.80;99.90;;;;;;6523192;22;20264;-82
2024/04/14 02:10:49;;;;;;;6.20;1.60;;;13.70;99.90;;;;;;6523829;22;20390;-82
2024/04/14 02:13:18;;;;;;;5.33;1.40;;;13.60;99.90;;;;;;6525033;22;20226;-82
2024/04/14 02:19:33;;;;;;;5.67;1.17;;;13.50;99.90;;;;;;6490784;22;20238;-82
2024/04/14 02:23:24;;;;;;;;;;;;;;;;;;;;;
2024/04/14 02:26:00;;;;;;;3.30;1.17;;;13.40;99.90;;;;;;6341188;22;20221;-82
2024/04/14 02:29:01;;;;;;;5.23;1.07;;;13.20;99.90;;;;;;6366428;22;20275;-82
2024/04/14 02:45:29;;;;;;;5.33;1.10;;;13.20;99.90;;;;;;6176294;23;20250;-82
2024/04/14 02:51:23;;;;;;;3.33;1.10;;;13.20;99.90;;;;;;6326096;22;20234;-83
2024/04/14 02:54:46;;;;;;;4.70;1.37;;;13.20;99.90;;;;;;6524900;22;20245;-83
2024/04/14 02:57:45;;;;;;;3.77;1.00;;;13.10;99.90;;;;;;6366774;22;20222;-83
2024/04/14 03:00:16;;;;;;;7.40;1.13;;;13.10;99.90;;;;;;6471132;22;20483;-83
2024/04/14 03:02:52;;;;;;;8.47;1.20;;;13.00;99.90;;;;;;6471986;22;20618;-83
2024/04/14 03:05:25;;;;;;;5.43;1.40;;;13.00;99.90;;;;;;6472625;22;20346;-83
2024/04/14 03:07:59;;;;;;;4.27;1.47;;;13.00;99.90;;;;;;6471008;22;20699;-83
2024/04/14 03:10:28;;;;;;;2.53;1.13;;;13.00;99.90;;;;;;6471959;22;20677;-83
2024/04/14 03:12:57;;;;;;;6.73;1.17;;;12.90;99.90;;;;;;6471142;22;20223;-83
2024/04/14 03:15:30;;;;;;;4.47;1.20;;;12.80;99.90;;;;;;6471656;22;20726;-83
2024/04/14 03:17:56;;;;;;;7.13;1.37;;;12.90;99.90;;;;;;6471095;22;20219;-82
2024/04/14 03:20:39;;;;;;;6.90;1.63;;;12.80;99.90;;;;;;6471686;22;20227;-83
2024/04/14 03:23:12;;;;;;;6.07;1.33;;;12.70;99.90;;;;;;6471860;22;20286;-82
2024/04/14 03:25:48;;;;;;;5.30;1.57;;;12.80;99.90;;;;;;6472022;22;20274;-82
2024/04/14 03:32:11;;;;;;;;;;;;;;;;;;;;;
2024/04/14 03:34:45;;;;;;;3.23;1.17;;;12.60;99.90;;;;;;6374287;22;20247;-82
2024/04/14 03:37:15;;;;;;;3.40;1.10;;;12.60;99.90;;;;;;6470335;22;20235;-83
2024/04/14 03:39:49;;;;;;;3.20;1.07;;;12.50;99.90;;;;;;6471370;22;20219;-82
2024/04/14 03:42:42;;;;;;;6.47;1.57;;;12.50;99.90;;;;;;6472040;22;20219;-83
2024/04/14 03:45:32;;;;;;;3.70;1.00;;;12.50;99.90;;;;;;6470731;22;20278;-83
2024/04/14 03:48:15;;;;;;;4.70;1.53;;;12.40;99.90;;;;;;6470860;22;20294;-83
2024/04/14 03:50:43;;;;;;;4.40;1.23;;;12.30;99.90;;;;;;6470470;22;20231;-83
2024/04/14 03:53:23;;;;;;;4.07;1.17;;;12.30;99.90;;;;;;6470864;22;20223;-83
2024/04/14 03:55:52;;;;;;;2.47;1.00;;;12.20;99.90;;;;;;6471512;22;20223;-83
2024/04/14 03:58:42;;;;;;;4.77;1.27;;;12.10;99.90;;;;;;6490131;22;20588;-83
2024/04/14 04:01:13;;;;;;;4.57;1.47;;;12.20;99.90;;;;;;6518611;22;20234;-83
2024/04/14 04:06:51;;;;;;;;;;;;;;;;;;;;;
2024/04/14 04:24:33;;;;;;;;;;;;;;;;;;;;;
2024/04/14 04:27:56;;;;;;;4.23;1.23;;;11.90;99.90;;;;;;6165319;23;20320;-83
2024/04/14 05:08:27;;;;;;;7.97;1.53;;;11.30;99.90;;;;;;6579837;21;20270;-83
2024/04/14 05:10:54;;;;;;;5.67;1.67;;;11.30;99.90;;;;;;6576276;21;20244;-82
2024/04/14 08:10:51;;;;;;;3.83;1.00;;;12.40;99.90;;;;;;6228921;23;20267;-84
2024/04/14 08:35:08;;;;;;;4.90;1.53;;;12.60;99.90;;;;;;6324624;22;20443;-83
2024/04/14 08:48:33;;;;;;;4.03;0.97;;;12.70;99.90;;;;;;6296579;22;20729;-85
2024/04/14 09:25:07;;;;;;;4.77;0.90;;;12.90;99.90;;;;;;6576726;21;20276;-87
2024/04/14 09:27:33;;;;;;;5.63;1.17;;;13.00;99.90;;;;;;6577064;21;20217;-87
2024/04/14 09:30:15;;;;;;;1.90;0.70;;;13.00;99.90;;;;;;6575753;21;20229;-87
2024/04/14 09:33:21;;;;;;;2.80;0.83;;;13.00;99.90;;;;;;6575107;21;20263;-88
2024/04/14 09:35:48;;;;;;;3.93;0.90;;;13.10;99.90;;;;;;6562810;21;20221;-88
2024/04/14 09:38:19;;;;;;;4.07;0.93;;;13.30;99.90;;;;;;6578028;21;20297;-90
2024/04/14 09:40:49;;;;;;;4.23;1.00;;;13.50;99.90;;;;;;6578809;21;20221;-90
2024/04/14 09:43:19;;;;;;;2.50;0.60;;;13.50;99.90;;;;;;6578602;21;20237;-89
2024/04/14 09:45:47;;;;;;;4.67;0.97;;;13.50;99.90;;;;;;6578839;21;20229;-90
2024/04/14 09:48:17;;;;;;;4.43;1.00;;;13.50;99.90;;;;;;6579003;21;20237;-89
2024/04/14 09:50:44;;;;;;;4.93;0.73;;;13.60;99.90;;;;;;6577756;21;20225;-89
2024/04/14 09:53:13;;;;;;;2.90;0.97;;;13.70;99.90;;;;;;6577623;21;20708;-89
2024/04/14 09:55:39;;;;;;;4.67;0.80;;;13.90;99.90;;;;;;6578770;21;20296;-89
2024/04/14 09:58:10;;;;;;;6.03;1.13;;;14.00;99.90;;;;;;6578211;21;20225;-91
2024/04/14 10:00:39;;;;;;;1.20;0.57;;;14.10;99.90;;;;;;6578604;21;20445;-90
2024/04/14 10:03:09;;;;;;;3.83;0.67;;;13.90;99.90;;;;;;6577461;21;20283;-90
2024/04/14 10:05:38;;;;;;;3.47;0.70;;;13.80;99.90;;;;;;6577322;21;20590;-89
2024/04/14 10:08:07;;;;;;;1.47;0.70;;;13.60;99.90;;;;;;6576891;21;20257;-90
2024/04/14 10:10:33;;;;;;;2.93;0.83;;;13.50;99.90;;;;;;6577773;21;20226;-89
2024/04/14 10:13:02;;;;;;;2.47;0.90;;;13.60;99.90;;;;;;6577430;21;20229;-89
2024/04/14 10:15:31;;;;;;;4.50;0.90;;;13.50;99.90;;;;;;6576749;21;20225;-88
2024/04/14 10:18:11;;;;;;;2.43;0.60;;;13.50;99.90;;;;;;6577385;21;20352;-88
2024/04/14 10:20:42;;;;;;;4.47;0.67;;;13.70;99.90;;;;;;6578674;21;20289;-88
2024/04/14 10:23:11;;;;;;;2.17;0.80;;;13.80;99.90;;;;;;6565385;21;20242;-88
2024/04/14 10:25:44;;;;;;;3.03;1.17;;;13.80;99.90;;;;;;6525133;22;20226;-90
2024/04/14 10:28:13;;;;;;;1.97;0.60;;;13.80;99.90;;;;;;6523678;22;20650;-89
2024/04/14 10:30:43;;;;;;;2.20;0.60;;;14.00;99.90;;;;;;6527072;22;20253;-90
2024/04/14 10:33:28;;;;;;;4.33;0.90;;;14.10;99.90;;;;;;6528193;22;20623;-89
2024/04/14 10:36:01;;;;;;;1.67;0.60;;;14.10;99.90;;;;;;6527321;22;20313;-89
2024/04/14 10:38:31;;;;;;;2.77;0.73;;;14.00;99.90;;;;;;6526745;22;20268;-89
2024/04/14 10:40:58;;;;;;;3.40;0.80;;;14.10;99.90;;;;;;6526114;22;20282;-89
2024/04/14 10:43:27;;;;;;;4.27;0.90;;;14.10;99.90;;;;;;6525201;22;20239;-90
2024/04/14 10:46:00;;;;;;;3.33;0.80;;;14.10;99.90;;;;;;6524466;22;20223;-89
2024/04/14 10:48:28;;;;;;;1.90;0.80;;;14.00;99.90;;;;;;6525972;22;20234;-89
2024/04/14 10:50:54;;;;;;;4.37;0.90;;;14.20;99.90;;;;;;6527756;22;20222;-90
2024/04/14 10:53:23;;;;;;;1.93;0.47;;;14.20;99.90;;;;;;6526917;22;20276;-91
2024/04/14 10:55:49;;;;;;;1.10;0.60;;;14.30;99.90;;;;;;6523429;22;20549;-91
2024/04/14 10:58:17;;;;;;;2.37;0.60;;;14.40;99.90;;;;;;6525894;22;20253;-90
2024/04/14 11:00:44;;;;;;;2.73;0.90;;;14.70;99.90;;;;;;6508289;22;20226;-89
2024/04/14 11:03:18;;;;;;;3.83;1.20;;;14.60;99.90;;;;;;6521826;22;20407;-89
2024/04/14 11:05:44;;;;;;;3.73;1.03;;;14.60;99.90;;;;;;6524820;22;20427;-90
2024/04/14 11:08:12;;;;;;;1.57;0.70;;;14.60;99.90;;;;;;6525818;22;20332;-86
2024/04/14 11:10:39;;;;;;;4.87;0.87;;;14.70;99.90;;;;;;6524820;22;20250;-90
2024/04/14 11:13:08;;;;;;;1.83;0.80;;;14.80;99.90;;;;;;6525325;22;20234;-90
2024/04/14 11:15:36;;;;;;;4.03;0.90;;;14.90;99.90;;;;;;6525924;22;20222;-90
2024/04/14 11:18:05;;;;;;;3.57;0.73;;;15.20;99.90;;;;;;6525958;22;20256;-91
2024/04/14 11:20:33;;;;;;;3.60;0.73;;;15.30;99.90;;;;;;6524390;22;20273;-91
2024/04/14 11:23:03;;;;;;;3.87;0.90;;;15.20;99.90;;;;;;6526022;21;20234;-88
2024/04/14 11:25:30;;;;;;;3.83;0.70;;;15.20;99.90;;;;;;6526389;22;20777;-90
2024/04/14 11:27:58;;;;;;;4.27;1.03;;;15.00;99.90;;;;;;6526143;22;20790;-85
2024/04/14 11:30:29;;;;;;;6.67;1.00;;;15.00;99.90;;;;;;6526379;22;20230;-87
2024/04/14 11:32:58;;;;;;;5.10;0.77;;;14.90;99.90;;;;;;6526992;22;20234;-88
2024/04/14 11:35:24;;;;;;;1.97;0.60;;;14.90;99.90;;;;;;6527933;22;20222;-88
2024/04/14 11:37:56;;;;;;;4.03;0.90;;;15.10;99.90;;;;;;6528473;22;20226;-89
2024/04/14 11:40:22;;;;;;;1.87;0.80;;;15.40;99.90;;;;;;6526822;22;20328;-89
2024/04/14 11:42:51;;;;;;;2.57;0.70;;;15.40;99.90;;;;;;6526981;22;20236;-87
2024/04/14 11:45:17;;;;;;;2.33;0.97;;;15.30;99.90;;;;;;6526711;22;20603;-88
2024/04/14 11:47:46;;;;;;;2.43;0.90;;;15.50;99.90;;;;;;6526207;22;20230;-88
2024/04/14 11:50:12;;;;;;;2.63;0.60;;;15.30;99.90;;;;;;6527969;22;20222;-88
2024/04/14 11:52:41;;;;;;;4.77;0.63;;;15.10;99.90;;;;;;6525507;22;20276;-89
2024/04/14 11:55:10;;;;;;;2.93;0.77;;;15.00;99.90;;;;;;6498951;22;20258;-89
2024/04/14 11:57:38;;;;;;;3.83;1.23;;;15.10;99.90;;;;;;6528070;22;20206;-89
2024/04/14 12:00:05;;;;;;;6.70;1.40;;;15.40;99.90;;;;;;6527770;22;20327;-89
2024/04/14 12:02:34;;;;;;;3.43;0.67;;;15.70;99.90;;;;;;6527125;22;20238;-90
2024/04/14 12:05:00;;;;;;;3.73;0.80;;;15.70;99.90;;;;;;6526484;22;20226;-89
2024/04/14 12:07:28;;;;;;;3.03;1.10;;;15.70;99.90;;;;;;6527564;22;20686;-89
2024/04/14 12:09:54;;;;;;;1.67;0.70;;;15.60;99.90;;;;;;6526458;22;20222;-90
2024/04/14 12:12:25;;;;;;;2.17;0.70;;;15.60;99.90;;;;;;6528616;22;20264;-89
2024/04/14 12:14:51;;;;;;;2.43;0.60;;;15.90;99.90;;;;;;6525050;22;20660;-89
2024/04/14 12:17:20;;;;;;;3.97;1.20;;;16.00;99.90;;;;;;6527070;22;20222;-90
2024/04/14 12:19:47;;;;;;;2.20;0.73;;;16.00;99.90;;;;;;6524921;22;20226;-89
2024/04/14 12:22:16;;;;;;;3.53;1.00;;;16.20;99.90;;;;;;6526953;22;20340;-88
2024/04/14 12:24:42;;;;;;;2.53;0.60;;;16.30;99.90;;;;;;6571505;21;20241;-89
2024/04/14 12:27:10;;;;;;;4.27;0.90;;;16.10;99.90;;;;;;6580266;21;20525;-90
2024/04/14 12:29:39;;;;;;;2.00;0.70;;;16.30;99.90;;;;;;6580468;21;20217;-90
2024/04/14 12:32:08;;;;;;;1.60;0.60;;;16.50;99.90;;;;;;6580289;21;20277;-88
2024/04/14 12:34:34;;;;;;;1.93;0.47;;;16.60;99.90;;;;;;6577433;21;20263;-91
2024/04/14 12:37:03;;;;;;;1.17;0.53;;;16.40;99.90;;;;;;6578302;21;20225;-90
2024/04/14 12:39:31;;;;;;;2.23;0.70;;;16.30;99.90;;;;;;6579228;21;20646;-90
2024/04/14 12:42:05;;;;;;;2.30;0.67;;;16.30;99.90;;;;;;6580001;21;20237;-90
2024/04/14 12:44:31;;;;;;;2.07;0.43;;;16.30;99.90;;;;;;6581609;21;20279;-90
2024/04/14 12:47:12;;;;;;;;;;;;;;;;;;;;;
2024/04/14 12:49:43;;;;;;;3.13;0.53;;;16.30;99.90;;;;;;6580038;21;20259;-90
2024/04/14 12:52:09;;;;;;;3.70;0.60;;;16.20;99.90;;;;;;6579026;21;20533;-89
2024/04/14 12:54:37;;;;;;;3.53;0.63;;;16.10;99.90;;;;;;6579467;21;20267;-90
2024/04/14 12:57:04;;;;;;;2.93;0.70;;;16.00;99.90;;;;;;6580187;21;20221;-91
2024/04/14 12:59:32;;;;;;;1.47;0.70;;;16.10;99.90;;;;;;6579474;21;20260;-89
2024/04/14 13:02:01;;;;;;;1.10;0.50;;;16.30;99.90;;;;;;6579680;21;20225;-89
2024/04/14 13:04:32;;;;;;;0.87;0.40;;;16.20;99.90;;;;;;6579783;21;20782;-89
2024/04/14 13:07:00;;;;;;;4.13;0.90;;;16.40;99.90;;;;;;6579433;21;20272;-90
2024/04/14 13:09:28;;;;;;;4.57;1.20;;;16.70;99.90;;;;;;6579832;21;20225;-90
2024/04/14 13:11:54;;;;;;;1.23;0.60;;;16.90;99.90;;;;;;6579813;21;20227;-90
2024/04/14 13:14:23;;;;;;;2.30;0.70;;;17.20;99.90;;;;;;6580903;21;20727;-89
2024/04/14 13:16:49;;;;;;;0.93;0.60;;;17.40;99.90;;;;;;6580962;21;20221;-90
2024/04/14 13:19:20;;;;;;;6.50;1.03;;;17.70;99.90;;;;;;6580317;21;20221;-90
2024/04/14 13:21:47;;;;;;;3.13;0.87;;;17.70;99.90;;;;;;6581442;21;20341;-90
2024/04/14 13:24:15;;;;;;;2.70;0.73;;;17.00;99.90;;;;;;6580181;21;20301;-90
2024/04/14 13:26:41;;;;;;;1.57;0.60;;;16.90;99.90;;;;;;6580926;21;20544;-89
2024/04/14 13:29:10;;;;;;;2.53;0.83;;;17.80;99.90;;;;;;6580359;21;20293;-90
2024/04/14 13:31:36;;;;;;;1.80;0.80;;;18.70;99.90;;;;;;6578798;21;20271;-90
2024/04/14 13:34:04;;;;;;;4.50;0.90;;;19.50;99.90;;;;;;6578888;21;20237;-91
2024/04/14 13:36:33;;;;;;;1.73;0.70;;;19.60;99.90;;;;;;6578871;21;20221;-90
2024/04/14 13:39:01;;;;;;;4.40;0.90;;;19.30;99.90;;;;;;6577604;21;20285;-88
2024/04/14 13:41:27;;;;;;;3.43;1.10;;;18.70;99.90;;;;;;6577079;21;20273;-88
2024/04/14 13:43:57;;;;;;;3.37;0.60;;;19.20;99.90;;;;;;6576609;21;20646;-89
2024/04/14 13:46:23;;;;;;;3.13;1.17;;;19.70;99.90;;;;;;6576450;21;20288;-88
2024/04/14 13:48:51;;;;;;;4.10;0.97;;;19.00;99.90;;;;;;6577050;21;20633;-89
2024/04/14 13:51:17;;;;;;;5.20;1.10;;;18.40;99.90;;;;;;6577251;21;20306;-88
2024/04/14 13:53:48;;;;;;;4.10;1.00;;;18.60;99.90;;;;;;6577292;21;20234;-89
2024/04/14 13:56:14;;;;;;;3.67;0.80;;;19.20;99.90;;;;;;6577968;21;20219;-89
2024/04/14 14:02:30;;;;;;;3.03;0.77;;;19.40;99.80;;;;;;6566382;21;20733;-91
2024/04/14 14:05:05;;;;;;;3.87;1.20;;;18.70;99.90;;;;;;6580102;21;20753;-91
2024/04/14 14:08:09;;;;;;;3.10;0.80;;;20.10;99.90;;;;;;6580083;21;20324;-90
2024/04/14 14:11:02;;;;;;;2.73;0.73;;;21.30;99.90;;;;;;6579733;21;20220;-90
2024/04/14 14:14:23;;;;;;;2.50;0.67;;;22.70;99.90;;;;;;6580393;21;20237;-92
2024/04/14 14:17:06;;;;;;;2.37;0.80;;;23.50;95.40;;;;;;6372497;22;20343;-92
2024/04/14 14:19:37;;;;;;;4.43;0.90;;;23.30;93.80;;;;;;6367905;22;20693;-91
2024/04/14 14:22:03;;;;;;;2.47;0.67;;;21.80;93.90;;;;;;6522653;21;20681;-90
2024/04/14 14:24:32;;;;;;;3.40;0.70;;;21.30;96.30;;;;;;6579864;21;20237;-90
2024/04/14 14:27:00;;;;;;;3.03;0.73;;;20.90;95.60;;;;;;6580261;21;20260;-90
2024/04/14 14:29:29;;;;;;;3.97;0.90;;;20.10;96.40;;;;;;6579675;21;20766;-91
2024/04/14 14:31:55;;;;;;;2.97;1.07;;;20.10;97.90;;;;;;6578417;21;20537;-90
2024/04/14 14:37:08;;;;;;;3.50;0.83;;;21.40;98.10;;;;;;6584363;21;20256;-91
2024/04/14 14:39:37;;;;;;;2.67;1.00;;;22.10;97.30;;;;;;6579103;21;20221;-92
2024/04/14 14:42:08;;;;;;;4.23;1.00;;;22.40;94.90;;;;;;6578629;21;20388;-92
2024/04/14 14:44:36;;;;;;;2.50;0.70;;;22.50;93.40;;;;;;6579308;21;20279;-91
2024/04/14 14:47:03;;;;;;;2.50;0.70;;;22.90;94.40;;;;;;6578184;21;20586;-92
2024/04/14 14:49:32;;;;;;;4.17;0.77;;;22.70;94.80;;;;;;6578709;21;20534;-90
2024/04/14 14:51:57;;;;;;;5.03;0.90;;;22.20;94.20;;;;;;6578020;21;20506;-91
2024/04/14 14:54:26;;;;;;;4.87;0.70;;;22.50;94.90;;;;;;6578424;21;20287;-92
2024/04/14 14:56:52;;;;;;;4.70;1.00;;;21.30;94.60;;;;;;6578025;21;20727;-93
2024/04/14 14:59:23;;;;;;;1.27;0.70;;;20.10;95.70;;;;;;6578651;21;20227;-89
2024/04/14 15:01:49;;;;;;;4.53;1.00;;;19.90;98.10;;;;;;6578869;21;20587;-91
2024/04/14 15:04:17;;;;;;;3.73;1.00;;;20.10;98.10;;;;;;6578793;21;20244;-92
2024/04/14 15:06:43;;;;;;;2.23;0.60;;;20.70;96.80;;;;;;6578953;21;20225;-92
2024/04/14 15:09:12;;;;;;;3.77;0.90;;;22.10;98.10;;;;;;6578126;21;20276;-91
2024/04/14 15:11:38;;;;;;;5.30;1.33;;;22.10;94.80;;;;;;6578380;21;20236;-92
2024/04/14 15:14:06;;;;;;;2.73;0.93;;;22.10;95.00;;;;;;6578666;21;20234;-92
2024/04/14 15:16:35;;;;;;;2.97;1.10;;;22.50;94.00;;;;;;6577222;21;20221;-91
2024/04/14 15:19:04;;;;;;;6.03;1.13;;;22.60;94.40;;;;;;6578338;21;20259;-90
2024/04/14 15:21:34;;;;;;;4.93;1.00;;;21.80;95.60;;;;;;6578045;21;20260;-89
2024/04/14 15:24:02;;;;;;;8.37;1.03;;;21.40;96.00;;;;;;6576818;21;20700;-89
2024/04/14 15:26:31;;;;;;;2.47;0.83;;;20.20;96.50;;;;;;6576736;21;20711;-90
2024/04/14 15:28:57;;;;;;;3.10;0.93;;;20.50;97.30;;;;;;6579123;21;20267;-89
2024/04/14 15:31:26;;;;;;;3.93;1.07;;;19.50;96.70;;;;;;6575909;21;20272;-89
2024/04/14 15:33:54;;;;;;;6.17;0.90;;;18.60;98.20;;;;;;6576616;21;20238;-89
2024/04/14 15:36:23;;;;;;;4.90;1.07;;;18.20;99.40;;;;;;6577379;21;20343;-90
2024/04/14 15:38:49;;;;;;;6.23;1.30;;;19.00;99.90;;;;;;6578761;21;20270;-87
2024/04/14 15:41:18;;;;;;;5.03;0.93;;;20.10;98.90;;;;;;6577925;21;20228;-87
2024/04/14 15:43:43;;;;;;;5.50;1.10;;;21.00;98.00;;;;;;6578340;21;20240;-87
2024/04/14 15:46:15;;;;;;;4.63;1.37;;;20.90;97.10;;;;;;6578545;21;20768;-89
2024/04/14 15:48:40;;;;;;;4.50;1.17;;;21.40;97.70;;;;;;6577470;21;20673;-88
2024/04/14 15:51:12;;;;;;;7.53;1.30;;;20.40;97.30;;;;;;6577051;21;20279;-88
2024/04/14 15:53:37;;;;;;;3.23;1.07;;;20.90;98.60;;;;;;6577064;21;20240;-88
2024/04/14 15:56:07;;;;;;;1.67;0.80;;;21.50;98.00;;;;;;6576471;21;20260;-88
2024/04/14 15:58:35;;;;;;;4.50;1.20;;;21.40;97.80;;;;;;6578480;21;20225;-88
2024/04/14 16:01:04;;;;;;;3.00;0.80;;;21.50;98.10;;;;;;6577742;21;20233;-88
2024/04/14 16:03:30;;;;;;;3.43;1.30;;;21.30;97.70;;;;;;6578440;21;20299;-87
2024/04/14 16:05:58;;;;;;;3.73;1.03;;;19.30;98.70;;;;;;6578152;21;20338;-88
2024/04/14 16:08:27;;;;;;;4.23;1.00;;;18.90;99.10;;;;;;6578898;21;20541;-88
2024/04/14 16:11:03;;;;;;;3.60;1.17;;;19.00;99.90;;;;;;6578705;21;20226;-87
2024/04/14 16:13:29;;;;;;;3.77;1.33;;;18.50;99.50;;;;;;6580001;21;20276;-87
2024/04/14 16:16:07;;;;;;;2.53;1.10;;;18.20;99.90;;;;;;6580033;21;20676;-88
2024/04/14 16:18:33;;;;;;;4.57;0.93;;;18.10;99.90;;;;;;6579503;21;20218;-87
2024/04/14 16:21:02;;;;;;;6.33;1.10;;;18.10;99.90;;;;;;6578739;21;20226;-88
2024/04/14 16:23:37;;;;;;;5.63;1.23;;;17.90;99.90;;;;;;6579309;21;20748;-89
2024/04/14 16:26:06;;;;;;;5.80;1.33;;;17.60;99.90;;;;;;6580590;21;20263;-88
2024/04/14 16:28:32;;;;;;;7.47;1.40;;;17.40;99.90;;;;;;6580177;21;20712;-89
2024/04/14 16:31:01;;;;;;;5.70;1.40;;;17.20;99.90;;;;;;6580390;21;20225;-89
2024/04/14 16:33:27;;;;;;;3.33;1.17;;;17.00;99.90;;;;;;6580242;21;20605;-89
2024/04/14 16:35:56;;;;;;;4.47;1.17;;;16.50;99.90;;;;;;6580503;21;20225;-89
2024/04/14 16:38:22;;;;;;;3.23;1.00;;;16.30;99.90;;;;;;6580880;21;20225;-87
2024/04/14 16:40:53;;;;;;;2.60;1.10;;;16.00;99.90;;;;;;6580351;21;20580;-88
2024/04/14 16:43:19;;;;;;;2.37;0.70;;;15.70;99.90;;;;;;6580110;21;20287;-89
2024/04/14 16:45:47;;;;;;;2.83;0.87;;;15.50;99.90;;;;;;6580102;21;20229;-90
2024/04/14 16:48:13;;;;;;;8.23;1.40;;;15.30;99.90;;;;;;6578640;21;20256;-89
2024/04/14 16:50:42;;;;;;;2.77;0.70;;;15.20;99.90;;;;;;6577185;21;20259;-89
2024/04/14 16:53:08;;;;;;;4.53;1.10;;;15.20;99.90;;;;;;6575824;21;20234;-88
2024/04/14 16:55:36;;;;;;;4.30;0.80;;;15.10;99.90;;;;;;6575146;21;20225;-87
2024/04/14 16:58:05;;;;;;;4.10;1.20;;;15.00;99.90;;;;;;6575831;21;20545;-88
2024/04/14 17:00:34;;;;;;;3.03;0.87;;;14.80;99.90;;;;;;6575540;21;20260;-89
2024/04/14 17:03:00;;;;;;;3.80;1.47;;;14.80;99.90;;;;;;6575443;21;20237;-89
2024/04/14 17:05:29;;;;;;;5.00;1.17;;;14.50;99.90;;;;;;6577183;21;20327;-88
2024/04/14 17:07:55;;;;;;;5.23;0.93;;;14.60;99.90;;;;;;6578357;21;20225;-89
2024/04/14 17:10:23;;;;;;;3.97;0.90;;;14.50;99.90;;;;;;6579021;21;20323;-89
2024/04/14 17:12:49;;;;;;;4.67;1.00;;;14.50;99.90;;;;;;6578686;21;20596;-89
2024/04/14 17:15:20;;;;;;;6.13;1.20;;;14.50;99.90;;;;;;6578757;21;20225;-89
2024/04/14 17:17:46;;;;;;;5.73;1.10;;;14.50;99.90;;;;;;6579435;21;20221;-88
2024/04/14 17:20:15;;;;;;;2.73;1.43;;;14.40;99.90;;;;;;6578899;21;20256;-88
2024/04/14 17:22:41;;;;;;;5.43;1.27;;;14.40;99.90;;;;;;6578499;21;20256;-87
2024/04/14 17:25:09;;;;;;;4.40;1.13;;;14.50;99.90;;;;;;6579169;21;20225;-89
2024/04/14 17:27:35;;;;;;;3.90;1.10;;;14.50;99.90;;;;;;6579508;21;20276;-88
2024/04/14 17:30:04;;;;;;;5.60;1.30;;;14.40;99.90;;;;;;6579364;21;20217;-89
2024/04/14 17:32:33;;;;;;;5.03;1.13;;;14.20;99.90;;;;;;6578752;21;20759;-88
2024/04/14 17:35:01;;;;;;;4.60;1.13;;;14.30;99.90;;;;;;6578086;21;20221;-88
2024/04/14 17:37:27;;;;;;;7.97;1.13;;;14.20;99.90;;;;;;6579062;21;20226;-87
2024/04/14 17:39:56;;;;;;;3.23;1.10;;;14.10;99.90;;;;;;6578396;21;20229;-88
2024/04/14 17:42:22;;;;;;;3.37;1.07;;;14.10;99.90;;;;;;6579226;21;20229;-88
2024/04/14 17:44:50;;;;;;;3.93;1.10;;;14.10;99.90;;;;;;6578663;21;20353;-88
2024/04/14 17:47:16;;;;;;;6.57;1.17;;;14.00;99.90;;;;;;6578830;21;20575;-88
2024/04/14 17:49:47;;;;;;;3.20;1.10;;;13.80;99.90;;;;;;6579029;21;20228;-88
2024/04/14 17:52:13;;;;;;;4.37;0.90;;;13.80;99.90;;;;;;6578732;21;20221;-88
2024/04/14 17:54:42;;;;;;;3.43;1.23;;;13.90;99.90;;;;;;6579012;21;20237;-89
2024/04/14 17:57:09;;;;;;;8.03;1.73;;;13.70;99.90;;;;;;6579726;21;20276;-90
2024/04/14 17:59:38;;;;;;;3.73;1.00;;;13.70;99.90;;;;;;6578769;21;20304;-88
2024/04/14 18:02:04;;;;;;;4.23;1.10;;;13.40;99.90;;;;;;6579110;21;20222;-88
2024/04/14 18:04:32;;;;;;;4.23;0.90;;;13.20;99.90;;;;;;6579351;21;20267;-88
2024/04/14 18:07:01;;;;;;;3.43;0.90;;;13.20;99.90;;;;;;6578882;21;20222;-88
2024/04/14 18:09:29;;;;;;;4.10;1.07;;;13.30;99.90;;;;;;6578871;21;20314;-89
2024/04/14 18:11:55;;;;;;;3.80;0.97;;;13.30;99.90;;;;;;6578749;21;20263;-88
2024/04/14 18:14:24;;;;;;;4.63;0.83;;;13.30;99.90;;;;;;6578649;21;20350;-89
2024/04/14 18:16:50;;;;;;;4.63;0.97;;;13.30;99.90;;;;;;6578475;21;20225;-88
2024/04/14 18:19:18;;;;;;;4.67;1.07;;;13.20;99.90;;;;;;6579046;21;20265;-88
2024/04/14 18:21:44;;;;;;;7.77;1.37;;;13.20;99.90;;;;;;6578326;21;20225;-88
2024/04/14 18:24:15;;;;;;;8.60;1.33;;;13.00;99.90;;;;;;6577987;21;20576;-88
2024/04/14 18:26:41;;;;;;;4.97;1.40;;;13.00;99.90;;;;;;6578731;21;20264;-89
2024/04/14 18:29:10;;;;;;;6.67;1.30;;;13.00;99.90;;;;;;6578950;21;20693;-88
2024/04/14 18:31:36;;;;;;;2.87;1.13;;;12.70;99.90;;;;;;6579523;21;20619;-88
2024/04/14 18:34:04;;;;;;;4.67;1.50;;;12.70;99.90;;;;;;6578669;21;20249;-87
2024/04/14 18:36:30;;;;;;;2.40;1.17;;;12.70;99.90;;;;;;6578521;21;20252;-88
2024/04/14 18:38:58;;;;;;;4.60;1.13;;;12.80;99.90;;;;;;6579177;21;20225;-89
2024/04/14 18:41:27;;;;;;;4.00;0.90;;;12.70;99.90;;;;;;6578468;21;20542;-88
2024/04/14 18:43:55;;;;;;;4.07;1.20;;;12.70;99.90;;;;;;6578386;21;20284;-87
2024/04/14 18:46:21;;;;;;;3.20;1.20;;;12.40;99.90;;;;;;6579172;21;20221;-89
2024/04/14 18:48:50;;;;;;;7.00;1.40;;;12.20;99.90;;;;;;6579330;21;20275;-89
2024/04/14 18:51:16;;;;;;;5.27;1.50;;;12.20;99.90;;;;;;6578650;21;20665;-89
2024/04/14 18:53:45;;;;;;;5.33;1.40;;;12.10;99.90;;;;;;6578822;21;20701;-89
2024/04/14 18:56:11;;;;;;;4.03;1.20;;;12.20;99.90;;;;;;6578817;21;20280;-88
2024/04/14 18:58:42;;;;;;;2.67;1.10;;;12.10;99.90;;;;;;6578511;21;20222;-88
2024/04/14 19:01:08;;;;;;;7.50;1.30;;;12.00;99.90;;;;;;6578622;21;20271;-89
2024/04/14 19:03:37;;;;;;;5.80;1.23;;;11.90;99.90;;;;;;6578062;21;20320;-89
2024/04/14 19:06:03;;;;;;;3.33;1.47;;;11.80;99.90;;;;;;6578625;21;20222;-89
2024/04/14 19:08:33;;;;;;;5.57;1.40;;;11.70;99.90;;;;;;6578379;21;20746;-88
2024/04/14 19:10:59;;;;;;;6.87;2.00;;;11.70;99.90;;;;;;6578373;21;20583;-88
2024/04/14 19:13:27;;;;;;;5.00;1.50;;;11.60;99.90;;;;;;6577223;21;20687;-89
2024/04/14 19:16:00;;;;;;;6.97;2.23;;;12.00;99.90;;;;;;6578534;21;20225;-88
2024/04/14 19:18:28;;;;;;;4.10;1.60;;;12.10;99.90;;;;;;6577842;21;20263;-88
2024/04/14 19:20:54;;;;;;;5.17;1.53;;;12.00;99.90;;;;;;6577433;21;20535;-88
2024/04/14 19:23:23;;;;;;;6.33;1.73;;;11.90;99.90;;;;;;6578162;21;20689;-88
2024/04/14 19:25:59;;;;;;;3.27;1.23;;;11.70;99.90;;;;;;6577677;21;20217;-89
2024/04/14 19:28:28;;;;;;;6.67;1.30;;;11.70;99.90;;;;;;6577551;21;20229;-89
2024/04/14 19:30:54;;;;;;;6.80;1.20;;;11.60;99.90;;;;;;6578123;21;20297;-89
2024/04/14 19:33:25;;;;;;;7.03;1.60;;;11.60;99.90;;;;;;6578501;21;20343;-89
2024/04/14 19:35:51;;;;;;;5.67;2.00;;;11.60;99.90;;;;;;6578304;21;20229;-89
2024/04/14 19:38:20;;;;;;;4.23;1.70;;;11.60;99.90;;;;;;6578322;21;20272;-89
2024/04/14 19:40:46;;;;;;;4.97;1.60;;;11.40;99.90;;;;;;6578422;21;20225;-89
2024/04/14 19:43:14;;;;;;;7.93;1.43;;;11.40;99.90;;;;;;6578365;21;20296;-88
2024/04/14 19:45:40;;;;;;;5.37;1.17;;;11.30;99.90;;;;;;6580366;21;20225;-89
2024/04/14 19:48:09;;;;;;;11.00;4.60;;;11.30;99.90;;;;;;6579624;21;20229;-88
2024/04/14 19:50:38;;;;;;;17.03;6.40;;;11.60;99.90;;;;;;6579994;21;20228;-89
2024/04/14 19:53:06;;;;;;;11.80;2.83;;;11.80;99.90;;;;;;6579880;21;20352;-88
2024/04/14 19:55:32;;;;;;;4.77;1.53;;;12.00;99.90;;;;;;6578706;21;20265;-88
2024/04/14 19:58:01;;;;;;;5.33;1.37;;;11.90;99.90;;;;;;6576376;21;20229;-89
2024/04/14 20:00:27;;;;;;;9.80;2.90;;;12.00;99.90;;;;;;6576295;21;20625;-88
2024/04/14 20:02:55;;;;;;;4.70;1.53;;;12.00;99.90;;;;;;6579467;21;20736;-88
2024/04/14 20:05:21;;;;;;;7.40;2.17;;;11.90;99.90;;;;;;6580279;21;20543;-89
2024/04/14 20:07:52;;;;;;;8.30;2.23;;;11.80;99.90;;;;;;6579401;21;20293;-90
2024/04/14 20:10:18;;;;;;;5.57;1.97;;;11.50;99.90;;;;;;6579919;21;20229;-88
2024/04/14 20:12:46;;;;;;;4.43;1.10;;;11.40;99.90;;;;;;6579174;21;20233;-89
2024/04/14 20:15:12;;;;;;;4.70;1.30;;;11.20;99.90;;;;;;6579977;21;20715;-89
2024/04/14 20:17:42;;;;;;;7.63;1.90;;;11.10;99.90;;;;;;6579590;21;20225;-88
2024/04/14 20:20:08;;;;;;;6.77;1.47;;;11.00;99.90;;;;;;6579703;21;20280;-90
2024/04/14 20:22:37;;;;;;;6.70;1.40;;;10.80;99.90;;;;;;6580242;21;20225;-89
2024/04/14 20:25:06;;;;;;;7.27;1.70;;;10.80;99.90;;;;;;6579891;21;20476;-88
2024/04/14 20:27:34;;;;;;;4.67;1.10;;;10.90;99.90;;;;;;6580282;21;20688;-89
2024/04/14 20:30:02;;;;;;;7.00;1.47;;;10.80;99.90;;;;;;6580609;21;20263;-89
2024/04/14 20:32:31;;;;;;;5.37;1.57;;;10.80;99.90;;;;;;6580249;21;20255;-89
2024/04/14 20:34:57;;;;;;;11.83;1.77;;;10.60;99.90;;;;;;6579495;21;20233;-90
2024/04/14 20:37:25;;;;;;;6.23;1.47;;;10.40;99.90;;;;;;6580060;21;20229;-88
2024/04/14 20:39:52;;;;;;;5.47;1.13;;;10.60;99.90;;;;;;6580367;21;20221;-88
2024/04/14 20:42:23;;;;;;;4.67;1.43;;;10.70;99.90;;;;;;6579611;21;20288;-90